Time;durP1;ratioP1;P1;durP2;ratioP2;P2;SDS_P1;SDS_P2;PMS_P1;PMS_P2;Temp;Humidity;BMP_temperature;BMP_pressure;BME280_temperature;BME280_humidity;BME280_pressure;Samples;Min_cycle;Max_cycle;Signal;HPM_P1;HPM_P2
2022/04/13 00:00:11;;;;;;;15.00;3.70;;;;;;;14.59;55.62;101048.13;5052797;28;20373;-81
2022/04/13 00:02:37;;;;;;;13.00;3.45;;;;;;;14.59;55.30;101044.59;5054263;28;20037;-81
2022/04/13 00:05:04;;;;;;;17.45;3.95;;;;;;;14.52;55.51;101045.69;5039687;28;20025;-81
2022/04/13 00:07:29;;;;;;;12.38;3.50;;;;;;;14.49;55.90;101052.00;5034489;28;20034;-81
2022/04/13 00:09:55;;;;;;;13.02;3.50;;;;;;;14.49;55.71;101049.34;5033263;28;20400;-81
2022/04/13 00:12:21;;;;;;;11.30;3.08;;;;;;;14.47;55.47;101045.00;5034379;28;20481;-81
2022/04/13 00:14:47;;;;;;;11.98;3.67;;;;;;;14.40;55.87;101054.97;5034592;28;20030;-81
2022/04/13 00:17:13;;;;;;;15.57;3.80;;;;;;;14.36;56.42;101053.34;5032816;28;20042;-81
2022/04/13 00:19:38;;;;;;;10.25;3.20;;;;;;;14.29;56.57;101051.81;5033292;28;20117;-81
2022/04/13 00:22:04;;;;;;;9.25;3.10;;;;;;;14.25;56.78;101052.84;5016400;28;20077;-81
2022/04/13 00:24:29;;;;;;;10.27;3.95;;;;;;;14.26;56.41;101057.25;5033090;28;20068;-81
2022/04/13 00:26:57;;;;;;;11.88;3.47;;;;;;;14.26;57.00;101066.09;5032790;28;20045;-81
2022/04/13 00:29:23;;;;;;;10.02;3.17;;;;;;;14.24;57.00;101062.59;5016746;28;20044;-81
2022/04/13 00:31:51;;;;;;;9.45;3.70;;;;;;;14.24;57.06;101065.28;5032857;28;20469;-81
2022/04/13 00:34:17;;;;;;;13.05;4.07;;;;;;;14.28;57.46;101063.38;5033979;28;20029;-81
2022/04/13 00:36:42;;;;;;;14.32;4.18;;;;;;;14.30;56.78;101058.88;5052783;28;20400;-81
2022/04/13 00:39:08;;;;;;;14.77;4.10;;;;;;;14.27;56.67;101062.53;5053915;28;20116;-81
2022/04/13 00:41:33;;;;;;;20.33;4.20;;;;;;;14.25;56.50;101068.81;5035016;28;20115;-81
2022/04/13 00:44:04;;;;;;;11.18;3.80;;;;;;;14.23;56.38;101073.34;5054027;28;20521;-81
2022/04/13 00:46:31;;;;;;;12.52;3.70;;;;;;;14.23;56.86;101076.00;5044237;28;20037;-81
2022/04/13 00:48:57;;;;;;;13.70;4.22;;;;;;;14.20;57.70;101080.50;5015747;28;20037;-80
2022/04/13 00:51:23;;;;;;;12.90;4.03;;;;;;;14.19;57.03;101088.53;5033676;28;20038;-81
2022/04/13 00:53:51;;;;;;;14.18;4.65;;;;;;;14.17;57.96;101090.41;5032137;28;20408;-81
2022/04/13 00:56:20;;;;;;;14.57;3.97;;;;;;;14.16;58.15;101092.16;5032072;28;20112;-81
2022/04/13 00:58:49;;;;;;;10.45;3.88;;;;;;;14.11;58.26;101093.25;5042194;28;20040;-81
2022/04/13 01:01:15;;;;;;;10.38;3.70;;;;;;;14.07;58.11;101092.47;5051938;28;20041;-81
2022/04/13 01:03:43;;;;;;;13.15;4.28;;;;;;;14.04;58.40;101097.88;5032002;28;20044;-80
2022/04/13 01:06:10;;;;;;;19.35;4.38;;;;;;;14.01;59.29;101100.66;5033552;28;20135;-81
2022/04/13 01:08:38;;;;;;;15.43;4.05;;;;;;;13.96;59.07;101106.13;5033124;28;20044;-81
2022/04/13 01:11:03;;;;;;;17.52;4.28;;;;;;;13.97;59.77;101109.66;5032078;28;20405;-81
2022/04/13 01:13:29;;;;;;;20.35;4.88;;;;;;;13.94;59.37;101113.28;5033145;28;20052;-81
2022/04/13 01:15:55;;;;;;;16.45;4.53;;;;;;;13.91;59.42;101118.72;5031938;28;20075;-81
2022/04/13 01:18:20;;;;;;;11.07;4.15;;;;;;;13.87;59.86;101111.75;5031698;28;20432;-81
2022/04/13 01:20:52;;;;;;;12.00;4.35;;;;;;;13.85;59.72;101126.03;5031897;28;20037;-81
2022/04/13 01:23:22;;;;;;;14.80;4.63;;;;;;;13.85;59.47;101131.34;5031552;28;20061;-81
2022/04/13 01:25:49;;;;;;;12.30;4.38;;;;;;;13.82;59.97;101128.78;5014854;28;20127;-81
2022/04/13 01:28:15;;;;;;;8.82;3.75;;;;;;;13.85;60.37;101144.66;5032756;28;20210;-81
2022/04/13 01:30:40;;;;;;;16.92;4.38;;;;;;;13.77;60.50;101142.22;5031410;28;20029;-81
2022/04/13 01:33:06;;;;;;;14.73;4.93;;;;;;;13.73;60.47;101137.91;5031421;28;20374;-81
2022/04/13 01:35:32;;;;;;;10.98;4.68;;;;;;;13.72;60.94;101153.03;5041967;28;20496;-81
2022/04/13 01:37:57;;;;;;;11.93;4.32;;;;;;;13.71;61.14;101153.06;5051311;28;20124;-81
2022/04/13 01:40:23;;;;;;;12.32;4.75;;;;;;;13.66;61.10;101155.84;5044883;28;20496;-80
2022/04/13 01:42:49;;;;;;;13.18;4.55;;;;;;;13.63;61.31;101158.63;5039656;28;20083;-80
2022/04/13 01:45:19;;;;;;;17.27;5.40;;;;;;;13.61;61.35;101154.25;5031273;28;20077;-80
2022/04/13 01:47:49;;;;;;;15.75;4.97;;;;;;;13.58;61.09;101160.53;5050998;28;20475;-80
2022/04/13 01:50:16;;;;;;;14.05;4.82;;;;;;;13.57;61.60;101165.88;5052456;28;20318;-80
2022/04/13 01:52:43;;;;;;;17.58;5.03;;;;;;;13.55;61.93;101168.63;5051528;28;20017;-80
2022/04/13 01:55:09;;;;;;;15.38;5.10;;;;;;;13.54;61.37;101169.50;5052291;28;20510;-80
2022/04/13 01:57:35;;;;;;;18.05;5.22;;;;;;;13.53;61.73;101170.44;5052629;28;20044;-80
2022/04/13 02:00:02;;;;;;;15.80;5.35;;;;;;;13.50;62.77;101165.19;5031574;28;20034;-80
2022/04/13 02:02:30;;;;;;;20.05;5.72;;;;;;;13.47;63.18;101165.28;5032208;28;20034;-81
2022/04/13 02:04:55;;;;;;;17.92;4.72;;;;;;;13.42;63.06;101165.41;5030722;28;20060;-81
2022/04/13 02:07:21;;;;;;;12.05;5.45;;;;;;;13.41;63.47;101161.03;5031021;28;20033;-81
2022/04/13 02:09:46;;;;;;;15.93;5.80;;;;;;;13.41;63.22;101169.00;5014418;28;20049;-81
2022/04/13 02:12:12;;;;;;;16.23;5.78;;;;;;;13.39;63.72;101175.28;5014365;28;20057;-81
2022/04/13 02:14:37;;;;;;;19.08;5.47;;;;;;;13.38;62.78;101178.84;5032142;28;20099;-80
2022/04/13 02:17:03;;;;;;;14.73;6.00;;;;;;;13.37;64.09;101180.63;5032172;28;20120;-81
2022/04/13 02:19:29;;;;;;;14.45;6.00;;;;;;;13.34;63.42;101180.72;5014171;28;20037;-81
2022/04/13 02:21:54;;;;;;;14.35;5.45;;;;;;;13.35;64.20;101193.09;4998091;28;20029;-80
2022/04/13 02:24:19;;;;;;;15.88;5.72;;;;;;;13.33;63.41;101184.31;5031788;28;20392;-81
2022/04/13 02:26:45;;;;;;;14.43;6.03;;;;;;;13.29;64.10;101193.28;5031871;28;20385;-80
2022/04/13 02:29:10;;;;;;;11.70;5.47;;;;;;;13.25;64.92;101187.16;5030578;28;20540;-80
2022/04/13 02:31:36;;;;;;;13.10;5.57;;;;;;;13.23;63.99;101183.66;5013987;28;20049;-81
2022/04/13 02:34:04;;;;;;;20.00;5.47;;;;;;;13.20;64.45;101190.81;5013958;28;20042;-81
2022/04/13 02:36:30;;;;;;;12.60;5.93;;;;;;;13.14;65.20;101189.22;5031638;28;20033;-81
2022/04/13 02:38:56;;;;;;;13.73;5.80;;;;;;;13.13;65.39;101195.47;5030265;28;20066;-81
2022/04/13 02:41:21;;;;;;;18.10;6.72;;;;;;;13.11;65.26;101194.63;5034557;28;20107;-78
2022/04/13 02:43:47;;;;;;;17.10;6.00;;;;;;;13.10;66.09;101196.41;5037447;28;20048;-79
2022/04/13 02:46:12;;;;;;;13.50;5.80;;;;;;;13.08;65.85;101208.88;5036341;28;20044;-78
2022/04/13 02:48:38;;;;;;;17.70;5.97;;;;;;;13.05;66.55;101205.41;5049570;28;20098;-79
2022/04/13 02:51:03;;;;;;;14.27;5.70;;;;;;;12.98;65.58;101206.47;5051580;28;20032;-79
2022/04/13 02:53:30;;;;;;;11.52;6.10;;;;;;;12.95;66.32;101217.19;5033475;28;20037;-79
2022/04/13 02:55:56;;;;;;;14.57;5.65;;;;;;;12.85;67.11;101213.91;5051707;28;20363;-78
2022/04/13 02:58:21;;;;;;;16.55;6.57;;;;;;;12.80;66.86;101215.81;5045029;28;20037;-78
2022/04/13 03:00:47;;;;;;;11.52;6.03;;;;;;;12.74;66.58;101213.31;5031803;28;20461;-78
2022/04/13 03:03:13;;;;;;;14.73;5.50;;;;;;;12.66;66.32;101214.38;5030990;28;20033;-78
2022/04/13 03:05:38;;;;;;;15.90;6.32;;;;;;;12.60;66.64;101217.16;5029846;28;20037;-78
2022/04/13 03:08:05;;;;;;;19.45;6.03;;;;;;;12.52;66.49;101216.47;5030966;28;20106;-78
2022/04/13 03:10:30;;;;;;;15.93;6.63;;;;;;;12.46;67.71;101216.63;5029741;28;20068;-78
2022/04/13 03:12:56;;;;;;;14.80;6.05;;;;;;;12.39;67.49;101220.34;5031136;28;20120;-78
2022/04/13 03:15:23;;;;;;;19.48;6.38;;;;;;;12.31;68.34;101214.31;5013270;28;20056;-79
2022/04/13 03:17:52;;;;;;;12.13;5.82;;;;;;;12.22;69.54;101210.13;5029814;28;20128;-78
2022/04/13 03:20:20;;;;;;;16.20;6.57;;;;;;;12.14;68.53;101210.28;5030895;28;20121;-78
2022/04/13 03:22:46;;;;;;;13.90;5.90;;;;;;;12.08;68.57;101207.75;5029693;28;20444;-78
2022/04/13 03:25:11;;;;;;;16.52;6.65;;;;;;;11.99;68.89;101211.50;5030863;28;20076;-78
2022/04/13 03:27:37;;;;;;;11.80;6.47;;;;;;;11.94;69.47;101207.16;5029924;28;20029;-78
2022/04/13 03:30:04;;;;;;;13.07;6.18;;;;;;;11.86;70.73;101217.94;5030300;28;20037;-78
2022/04/13 03:32:40;;;;;;;12.60;5.70;;;;;;;11.76;69.28;101203.09;5012549;28;20091;-78
2022/04/13 03:35:07;;;;;;;14.55;7.13;;;;;;;11.68;70.16;101221.84;5012405;28;20108;-78
2022/04/13 03:37:32;;;;;;;14.65;6.40;;;;;;;11.65;69.40;101219.25;5030115;28;20022;-80
2022/04/13 03:39:58;;;;;;;14.95;5.80;;;;;;;11.59;70.19;101217.56;5031411;28;20036;-80
2022/04/13 03:42:23;;;;;;;13.40;6.45;;;;;;;11.53;71.18;101219.50;5033457;28;20511;-80
2022/04/13 03:44:49;;;;;;;22.70;7.28;;;;;;;11.46;69.35;101226.69;5030453;28;20052;-80
2022/04/13 03:47:14;;;;;;;11.02;6.32;;;;;;;11.39;69.68;101225.94;5014246;28;20057;-80
2022/04/13 03:49:40;;;;;;;13.77;5.78;;;;;;;11.35;71.64;101233.97;5048346;28;20040;-80
2022/04/13 03:52:05;;;;;;;17.75;6.68;;;;;;;11.36;72.42;101227.78;5037664;28;20038;-80
2022/04/13 03:54:31;;;;;;;14.70;6.18;;;;;;;11.38;72.29;101233.94;5030128;28;20034;-80
2022/04/13 03:56:56;;;;;;;20.25;5.82;;;;;;;11.38;72.47;101236.59;5020551;28;20041;-80
2022/04/13 03:59:22;;;;;;;14.93;6.63;;;;;;;11.39;72.74;101233.00;5029656;28;20068;-80
2022/04/13 04:01:48;;;;;;;19.80;6.20;;;;;;;11.35;73.23;101231.31;5028602;28;20117;-81
2022/04/13 04:04:13;;;;;;;13.35;6.35;;;;;;;11.26;73.17;101239.47;5014538;28;20144;-80
2022/04/13 04:06:39;;;;;;;12.93;6.13;;;;;;;11.16;72.78;101239.63;5029554;28;20049;-80
2022/04/13 04:09:04;;;;;;;17.20;6.53;;;;;;;11.09;71.88;101248.56;5028524;28;20049;-80
2022/04/13 04:11:30;;;;;;;19.90;6.93;;;;;;;11.03;72.22;101245.16;5026794;28;20109;-80
2022/04/13 04:13:55;;;;;;;16.75;6.45;;;;;;;10.95;72.76;101255.88;5029836;28;20064;-80
2022/04/13 04:16:21;;;;;;;14.20;6.65;;;;;;;10.92;74.18;101258.59;5032074;28;20041;-80
2022/04/13 04:18:48;;;;;;;11.77;6.53;;;;;;;10.93;73.29;101263.88;5033388;28;20013;-80
2022/04/13 04:21:16;;;;;;;13.20;6.70;;;;;;;10.90;74.71;101260.38;5033131;28;20044;-80
2022/04/13 04:23:43;;;;;;;15.75;7.00;;;;;;;10.88;76.42;101267.47;5033080;28;20473;-80
2022/04/13 04:26:09;;;;;;;12.10;7.07;;;;;;;10.88;74.72;101265.72;5041605;28;20055;-80
2022/04/13 04:28:35;;;;;;;16.88;7.30;;;;;;;10.88;76.18;101265.72;5016193;28;20120;-80
2022/04/13 04:31:01;;;;;;;18.50;7.07;;;;;;;10.86;74.98;101267.53;5031693;28;20048;-80
2022/04/13 04:33:26;;;;;;;20.08;7.28;;;;;;;10.83;75.08;101266.69;5032838;28;20041;-80
2022/04/13 04:35:52;;;;;;;16.48;7.00;;;;;;;10.79;73.37;101271.16;5032990;28;20098;-80
2022/04/13 04:38:18;;;;;;;15.40;7.03;;;;;;;10.77;74.61;101276.47;5015047;28;20068;-80
2022/04/13 04:40:43;;;;;;;17.67;7.32;;;;;;;10.79;75.26;101280.91;5035888;28;20059;-80
2022/04/13 04:43:09;;;;;;;17.10;7.18;;;;;;;10.78;74.09;101280.03;5017374;28;20049;-80
2022/04/13 04:45:35;;;;;;;16.63;7.70;;;;;;;10.80;74.09;101278.19;5031445;28;20174;-80
2022/04/13 04:48:04;;;;;;;25.67;7.68;;;;;;;10.80;74.89;101280.84;5032334;28;20520;-80
2022/04/13 04:50:31;;;;;;;15.90;7.68;;;;;;;10.83;74.41;101293.19;5034041;28;20045;-80
2022/04/13 04:52:56;;;;;;;17.85;7.75;;;;;;;10.86;75.88;101298.44;5032290;28;20033;-80
2022/04/13 04:55:22;;;;;;;12.73;6.75;;;;;;;10.86;75.34;101294.03;5031070;28;20409;-81
2022/04/13 04:57:48;;;;;;;17.92;7.65;;;;;;;10.89;75.61;101295.75;5031174;28;20476;-80
2022/04/13 05:00:19;;;;;;;19.10;7.90;;;;;;;10.91;76.24;101307.19;5032491;28;20396;-80
2022/04/13 05:02:52;;;;;;;19.40;8.45;;;;;;;10.95;75.49;101311.53;5036593;28;20445;-80
2022/04/13 05:05:19;;;;;;;15.77;7.80;;;;;;;10.96;76.06;101316.81;5031913;28;20140;-81
2022/04/13 05:07:48;;;;;;;18.25;8.23;;;;;;;11.01;77.12;101321.19;5032175;28;20049;-80
2022/04/13 05:10:13;;;;;;;18.73;7.43;;;;;;;11.03;76.27;101324.66;5032271;28;20051;-80
2022/04/13 05:12:42;;;;;;;17.77;8.15;;;;;;;11.00;77.41;101322.94;5031953;28;20105;-80
2022/04/13 05:15:09;;;;;;;19.67;8.30;;;;;;;11.02;77.62;101323.78;5014640;28;20400;-80
2022/04/13 05:17:35;;;;;;;18.63;9.38;;;;;;;11.03;77.29;101330.84;5032613;28;20052;-80
2022/04/13 05:20:01;;;;;;;18.13;9.20;;;;;;;11.07;77.97;101332.53;5031648;28;20120;-80
2022/04/13 05:22:26;;;;;;;19.25;8.93;;;;;;;11.10;75.68;101334.25;5032603;28;20030;-80
2022/04/13 05:24:52;;;;;;;22.30;10.55;;;;;;;11.16;77.10;101335.06;5036430;28;20130;-80
2022/04/13 05:27:18;;;;;;;25.50;10.00;;;;;;;11.24;77.40;101336.69;5050050;28;20041;-80
2022/04/13 05:29:43;;;;;;;18.77;9.73;;;;;;;11.30;77.37;101336.59;5032479;28;20045;-81
2022/04/13 05:32:09;;;;;;;19.95;10.48;;;;;;;11.35;76.73;101346.22;5014755;28;20048;-81
2022/04/13 05:34:35;;;;;;;17.65;10.68;;;;;;;11.39;78.65;101347.91;5014741;28;20056;-80
2022/04/13 05:37:00;;;;;;;23.48;11.43;;;;;;;11.46;78.04;101351.34;5032628;28;20049;-80
2022/04/13 05:39:26;;;;;;;19.52;10.98;;;;;;;11.53;78.44;101357.44;5013592;28;20028;-80
2022/04/13 05:41:51;;;;;;;21.63;11.90;;;;;;;11.60;77.40;101364.38;5030017;28;20369;-81
2022/04/13 05:44:17;;;;;;;23.20;11.82;;;;;;;11.65;76.87;101361.63;5031626;28;20132;-81
2022/04/13 05:46:42;;;;;;;19.30;11.82;;;;;;;11.71;78.23;101364.16;5036972;28;20025;-81
2022/04/13 05:49:08;;;;;;;22.05;11.15;;;;;;;11.78;77.21;101365.81;5003496;28;20577;-81
2022/04/13 05:51:33;;;;;;;25.45;11.80;;;;;;;11.83;77.91;101366.59;5039910;28;20041;-81
2022/04/13 05:53:59;;;;;;;23.55;12.00;;;;;;;11.90;76.58;101372.72;5030098;28;20037;-81
2022/04/13 05:56:24;;;;;;;24.20;12.75;;;;;;;11.95;76.68;101365.53;5030695;28;20041;-80
2022/04/13 05:58:50;;;;;;;19.40;11.75;;;;;;;12.01;76.94;101371.56;5013503;28;20049;-80
2022/04/13 06:01:15;;;;;;;20.83;12.65;;;;;;;12.09;75.81;101376.75;5013973;28;20128;-81
2022/04/13 06:03:41;;;;;;;22.13;11.77;;;;;;;12.16;75.73;101378.38;5031952;28;20040;-81
2022/04/13 06:06:06;;;;;;;24.45;12.35;;;;;;;12.25;75.52;101383.50;5030677;28;20033;-81
2022/04/13 06:08:32;;;;;;;20.85;12.57;;;;;;;12.31;75.62;101382.50;5031740;28;20521;-81
2022/04/13 06:10:57;;;;;;;27.20;13.43;;;;;;;12.41;75.51;101389.41;5013982;28;20120;-81
2022/04/13 06:13:23;;;;;;;18.75;12.85;;;;;;;12.48;76.13;101396.31;5013845;28;20108;-81
2022/04/13 06:15:48;;;;;;;27.02;13.82;;;;;;;12.53;75.19;101395.34;5031436;28;20123;-81
2022/04/13 06:18:13;;;;;;;22.70;13.57;;;;;;;12.57;76.07;101394.38;5031356;28;20049;-81
2022/04/13 06:20:39;;;;;;;22.42;14.13;;;;;;;12.62;75.94;101401.34;5030101;28;20045;-81
2022/04/13 06:23:04;;;;;;;27.85;15.00;;;;;;;12.69;74.98;101397.63;5031185;28;20085;-81
2022/04/13 06:25:30;;;;;;;24.33;13.23;;;;;;;12.76;75.35;101397.50;5031247;28;20052;-81
2022/04/13 06:27:56;;;;;;;30.33;14.95;;;;;;;12.78;75.42;101401.88;5029864;28;20385;-81
2022/04/13 06:30:21;;;;;;;23.20;13.73;;;;;;;12.82;74.82;101414.19;5029968;28;20102;-81
2022/04/13 06:32:47;;;;;;;28.52;14.07;;;;;;;12.86;73.65;101412.34;5031185;28;20036;-81
2022/04/13 06:35:15;;;;;;;21.55;13.52;;;;;;;12.87;73.91;101406.13;5029609;28;20130;-81
2022/04/13 06:37:43;;;;;;;26.50;14.68;;;;;;;12.86;76.22;101402.59;5029196;28;20025;-81
2022/04/13 06:40:09;;;;;;;24.98;15.52;;;;;;;12.89;75.71;101401.66;5034182;28;20032;-81
2022/04/13 06:42:39;;;;;;;28.42;15.98;;;;;;;12.91;76.16;101410.47;5041073;28;20071;-81
2022/04/13 06:45:12;;;;;;;27.23;16.17;;;;;;;12.93;75.31;101421.03;5049618;28;20127;-81
2022/04/13 06:47:39;;;;;;;29.75;16.17;;;;;;;12.94;75.56;101412.19;5031879;28;20060;-81
2022/04/13 06:50:05;;;;;;;36.30;17.25;;;;;;;12.97;75.17;101415.63;5012860;28;20163;-81
2022/04/13 06:52:36;;;;;;;29.98;16.38;;;;;;;13.04;75.21;101427.88;5029931;28;20043;-81
2022/04/13 06:55:02;;;;;;;26.40;15.55;;;;;;;13.07;75.85;101424.28;5029968;28;20084;-81
2022/04/13 06:57:28;;;;;;;30.60;15.95;;;;;;;13.12;75.52;101436.53;5031373;28;20120;-81
2022/04/13 06:59:53;;;;;;;28.67;16.00;;;;;;;13.15;75.66;101432.94;5032809;28;20481;-81
2022/04/13 07:02:18;;;;;;;29.58;16.80;;;;;;;13.21;75.19;101443.44;5049276;28;20029;-80
2022/04/13 07:04:44;;;;;;;33.13;16.77;;;;;;;13.33;75.40;101447.66;5037569;28;20122;-79
2022/04/13 07:07:10;;;;;;;31.73;16.90;;;;;;;13.49;74.64;101450.81;5030545;28;20496;-79
2022/04/13 07:09:36;;;;;;;30.42;16.50;;;;;;;13.59;74.97;101467.44;5031326;28;20088;-79
2022/04/13 07:12:01;;;;;;;30.00;16.85;;;;;;;13.66;74.09;101464.56;5013029;28;20049;-79
2022/04/13 07:14:27;;;;;;;27.20;16.25;;;;;;;13.72;74.28;101463.53;5030884;28;20043;-79
2022/04/13 07:16:52;;;;;;;30.17;17.48;;;;;;;13.72;73.88;101464.44;5029182;28;20037;-79
2022/04/13 07:19:18;;;;;;;23.58;16.15;;;;;;;13.72;74.07;101458.22;5029753;28;20477;-79
2022/04/13 07:21:44;;;;;;;33.17;18.60;;;;;;;13.71;74.11;101456.47;5029626;28;20370;-81
2022/04/13 07:24:10;;;;;;;26.70;16.52;;;;;;;13.69;74.88;101468.94;5029410;28;20045;-80
2022/04/13 07:26:37;;;;;;;28.92;17.58;;;;;;;13.72;74.78;101477.75;5029168;28;20456;-81
2022/04/13 07:29:02;;;;;;;34.40;16.63;;;;;;;13.79;74.22;101485.56;5029765;28;20128;-81
2022/04/13 07:31:28;;;;;;;28.17;16.88;;;;;;;13.81;74.88;101487.28;5029339;28;20116;-81
2022/04/13 07:33:54;;;;;;;27.45;15.95;;;;;;;13.86;74.91;101489.81;5012922;28;20070;-81
2022/04/13 07:36:19;;;;;;;30.15;15.85;;;;;;;13.92;74.06;101487.88;5028507;28;20564;-81
2022/04/13 07:38:45;;;;;;;31.58;15.98;;;;;;;13.97;74.36;101490.41;5029858;28;20044;-79
2022/04/13 07:41:10;;;;;;;28.70;16.02;;;;;;;14.06;73.79;101494.63;5040078;28;20037;-81
2022/04/13 07:43:36;;;;;;;29.40;15.82;;;;;;;14.10;72.66;101489.19;5029528;28;20045;-82
2022/04/13 07:46:01;;;;;;;29.55;17.13;;;;;;;14.13;73.88;101497.09;5036611;28;20040;-79
2022/04/13 07:48:29;;;;;;;26.90;15.18;;;;;;;14.16;73.84;101494.34;5048991;28;20052;-80
2022/04/13 07:50:55;;;;;;;23.52;14.98;;;;;;;14.15;73.05;101499.75;5052778;28;20040;-81
2022/04/13 07:53:21;;;;;;;23.17;15.25;;;;;;;14.16;73.32;101498.81;5054679;28;20021;-81
2022/04/13 07:55:46;;;;;;;25.75;14.90;;;;;;;14.24;73.18;101496.81;5052900;28;20056;-80
2022/04/13 07:58:12;;;;;;;23.50;14.63;;;;;;;14.35;73.49;101497.41;5052595;28;20040;-81
2022/04/13 08:00:37;;;;;;;25.08;13.80;;;;;;;14.45;71.94;101499.81;5054457;28;20084;-81
2022/04/13 08:03:04;;;;;;;24.05;14.07;;;;;;;14.53;72.42;101505.81;5036231;28;20036;-81
2022/04/13 08:05:29;;;;;;;24.30;13.30;;;;;;;14.60;72.28;101507.44;5034387;28;20056;-81
2022/04/13 08:07:55;;;;;;;21.42;13.50;;;;;;;14.63;71.35;101504.66;5016461;28;20045;-81
2022/04/13 08:10:20;;;;;;;24.05;13.07;;;;;;;14.65;71.53;101502.84;5016529;28;20045;-81
2022/04/13 08:12:46;;;;;;;22.90;13.20;;;;;;;14.73;71.14;101518.63;4999805;28;20126;-81
2022/04/13 08:15:13;;;;;;;23.00;12.73;;;;;;;14.80;70.54;101517.53;5032881;28;20044;-81
2022/04/13 08:17:39;;;;;;;24.50;12.55;;;;;;;14.91;70.77;101512.78;5032563;28;20467;-83
2022/04/13 08:20:07;;;;;;;20.13;12.90;;;;;;;15.04;70.14;101516.81;5033955;28;20520;-82
2022/04/13 08:22:34;;;;;;;23.23;13.35;;;;;;;15.16;69.98;101523.59;5032171;28;20033;-81
2022/04/13 08:24:59;;;;;;;22.13;12.38;;;;;;;15.34;70.31;101526.59;5032477;28;20036;-79
2022/04/13 08:27:25;;;;;;;25.25;13.02;;;;;;;15.42;68.94;101521.91;5033464;28;20342;-80
2022/04/13 08:29:50;;;;;;;25.63;11.75;;;;;;;15.55;69.01;101530.38;5015724;28;20037;-79
2022/04/13 08:32:17;;;;;;;20.42;12.30;;;;;;;15.65;68.30;101532.75;5033530;28;20041;-81
2022/04/13 08:34:43;;;;;;;22.77;11.73;;;;;;;15.80;68.13;101536.75;5032842;28;20029;-81
2022/04/13 08:37:10;;;;;;;20.60;11.85;;;;;;;16.01;68.30;101529.81;5032003;28;20382;-81
2022/04/13 08:39:36;;;;;;;23.50;12.38;;;;;;;16.24;67.42;101525.47;5032550;28;20025;-81
2022/04/13 08:42:12;;;;;;;21.95;11.15;;;;;;;16.36;66.24;101534.88;5041911;28;20037;-81
2022/04/13 08:44:50;;;;;;;21.17;11.32;;;;;;;16.39;66.36;101532.94;5052097;28;20040;-81
2022/04/13 08:47:20;;;;;;;19.50;10.68;;;;;;;16.54;66.69;101542.22;5036688;28;20037;-81
2022/04/13 08:49:49;;;;;;;19.93;11.23;;;;;;;16.73;65.79;101537.09;5032061;28;20049;-81
2022/04/13 08:52:19;;;;;;;22.10;9.95;;;;;;;16.87;63.40;101536.66;5031703;28;20034;-81
2022/04/13 08:54:59;;;;;;;15.63;9.05;;;;;;;16.86;63.94;101549.13;5033523;28;20513;-81
2022/04/13 08:57:27;;;;;;;16.92;8.35;;;;;;;17.04;64.24;101547.59;5031682;28;20156;-81
2022/04/13 09:00:05;;;;;;;18.60;8.38;;;;;;;17.25;63.04;101550.38;5053023;28;20081;-81
2022/04/13 09:03:09;;;;;;;16.20;8.00;;;;;;;17.33;62.87;101540.22;5051616;28;20064;-81
2022/04/13 09:05:35;;;;;;;12.95;8.25;;;;;;;17.59;62.19;101547.25;5032901;28;20037;-81
2022/04/13 09:08:16;;;;;;;18.10;8.85;;;;;;;17.87;62.33;101535.44;5031586;28;20041;-81
2022/04/13 09:10:42;;;;;;;14.25;7.60;;;;;;;17.96;60.68;101548.47;5033153;28;20072;-81
2022/04/13 09:13:12;;;;;;;18.38;8.13;;;;;;;17.79;59.80;101546.44;5031526;28;20057;-81
2022/04/13 09:15:42;;;;;;;15.38;7.60;;;;;;;17.65;60.64;101557.72;5033143;28;20051;-81
2022/04/13 09:18:11;;;;;;;22.10;8.00;;;;;;;17.53;60.32;101552.84;5031536;28;20505;-81
2022/04/13 09:20:38;;;;;;;15.02;7.75;;;;;;;17.35;60.60;101557.13;5033053;28;20046;-81
2022/04/13 09:23:04;;;;;;;13.30;7.00;;;;;;;17.27;61.20;101553.88;5014809;28;20030;-81
2022/04/13 09:25:34;;;;;;;13.13;7.38;;;;;;;17.19;60.88;101564.88;5032855;28;20133;-81
2022/04/13 09:28:01;;;;;;;16.83;7.43;;;;;;;17.09;61.69;101569.69;5031230;28;20048;-81
2022/04/13 09:30:28;;;;;;;15.10;8.23;;;;;;;16.98;62.45;101578.09;5031412;28;20052;-81
2022/04/13 09:32:54;;;;;;;13.05;7.63;;;;;;;16.92;62.30;101581.00;5015005;28;20393;-81
2022/04/13 09:35:20;;;;;;;20.55;8.48;;;;;;;16.90;62.55;101582.00;5030783;28;20456;-81
2022/04/13 09:37:46;;;;;;;18.77;7.75;;;;;;;16.89;62.30;101589.16;5032498;28;20125;-81
2022/04/13 09:40:27;;;;;;;17.17;7.55;;;;;;;16.82;62.71;101589.44;5034081;28;20044;-81
2022/04/13 09:43:02;;;;;;;23.13;8.30;;;;;;;16.86;63.11;101596.41;5046152;28;20461;-81
2022/04/13 09:45:33;;;;;;;14.70;8.10;;;;;;;16.83;62.75;101596.53;5049108;28;20104;-81
2022/04/13 09:47:58;;;;;;;19.58;7.82;;;;;;;16.75;62.78;101603.00;5032123;28;20061;-80
2022/04/13 09:50:27;;;;;;;14.77;7.65;;;;;;;16.69;63.24;101599.66;5032270;28;20087;-81
2022/04/13 09:52:55;;;;;;;14.50;6.65;;;;;;;16.73;63.81;101598.63;5014553;28;20091;-81
2022/04/13 09:55:24;;;;;;;18.00;8.15;;;;;;;16.70;63.33;101596.94;5030803;28;20037;-81
2022/04/13 09:57:50;;;;;;;16.00;8.18;;;;;;;16.66;63.44;101607.78;5035105;28;20477;-81
2022/04/13 10:00:16;;;;;;;16.27;7.25;;;;;;;16.57;63.26;101609.00;5052133;28;20033;-81
2022/04/13 10:02:43;;;;;;;14.90;7.63;;;;;;;16.56;63.89;101599.22;5050316;28;20033;-80
2022/04/13 10:05:20;;;;;;;14.10;8.25;;;;;;;16.52;63.45;101603.81;5035162;28;20113;-80
2022/04/13 10:08:01;;;;;;;15.02;7.80;;;;;;;16.55;63.94;101597.47;5031819;28;20034;-80
2022/04/13 10:10:28;;;;;;;13.35;8.00;;;;;;;16.53;63.70;101607.34;5031483;28;20056;-80
2022/04/13 10:12:53;;;;;;;15.45;8.23;;;;;;;16.50;63.72;101608.31;5013677;28;20026;-80
2022/04/13 10:15:19;;;;;;;15.15;8.35;;;;;;;16.49;63.55;101614.59;5030401;28;20040;-80
2022/04/13 10:17:44;;;;;;;14.60;8.40;;;;;;;16.42;63.63;101615.75;5013756;28;20049;-80
2022/04/13 10:20:10;;;;;;;18.05;8.38;;;;;;;16.38;63.92;101607.88;5031472;28;20106;-81
2022/04/13 10:23:01;;;;;;;15.82;7.82;;;;;;;16.34;64.25;101617.78;5013817;28;20034;-80
2022/04/13 10:25:27;;;;;;;17.43;8.90;;;;;;;16.24;64.65;101606.50;5013827;28;20127;-81
2022/04/13 10:27:55;;;;;;;17.05;8.32;;;;;;;16.19;64.17;101611.13;5030009;28;20295;-80
2022/04/13 10:30:28;;;;;;;20.08;8.77;;;;;;;16.15;64.41;101601.50;5031428;28;20048;-80
2022/04/13 10:33:06;;;;;;;19.52;8.15;;;;;;;16.11;64.70;101616.75;5031273;28;20639;-81
2022/04/13 10:35:37;;;;;;;18.85;8.35;;;;;;;16.10;64.66;101623.03;5031240;28;20034;-80
2022/04/13 10:38:03;;;;;;;17.92;8.05;;;;;;;16.13;64.68;101609.56;5029723;28;20033;-80
2022/04/13 10:40:30;;;;;;;14.05;8.02;;;;;;;16.19;65.23;101616.47;5023017;28;20330;-80
2022/04/13 10:42:59;;;;;;;18.08;7.82;;;;;;;16.21;64.96;101617.31;5035145;28;20184;-80
2022/04/13 10:45:27;;;;;;;15.82;8.40;;;;;;;16.18;65.40;101625.44;5032391;28;20539;-80
2022/04/13 10:48:11;;;;;;;17.92;8.18;;;;;;;16.17;65.38;101622.81;5050757;28;20045;-80
2022/04/13 10:51:11;;;;;;;18.33;9.32;;;;;;;16.16;65.79;101632.63;5049383;28;20037;-80
2022/04/13 10:54:09;;;;;;;17.95;9.48;;;;;;;16.19;66.50;101632.53;5050467;28;20473;-81
2022/04/13 10:56:38;;;;;;;16.30;9.95;;;;;;;16.22;66.11;101629.78;5050925;28;20037;-81
2022/04/13 10:59:18;;;;;;;19.70;10.45;;;;;;;16.21;66.55;101628.00;5035710;28;20041;-81
2022/04/13 11:02:16;;;;;;;16.60;10.25;;;;;;;16.22;66.61;101637.78;5031200;28;20041;-81
2022/04/13 11:04:41;;;;;;;20.27;9.80;;;;;;;16.15;67.23;101646.94;5029459;28;20072;-81
2022/04/13 11:07:07;;;;;;;21.60;9.65;;;;;;;16.05;67.95;101649.00;5030044;28;20519;-81
2022/04/13 11:09:39;;;;;;;22.90;10.23;;;;;;;16.02;67.88;101658.91;5013418;28;20056;-81
2022/04/13 11:12:05;;;;;;;21.30;10.18;;;;;;;15.97;67.82;101653.69;5029271;28;20037;-81
2022/04/13 11:14:31;;;;;;;16.95;10.02;;;;;;;15.94;67.57;101655.59;5029894;28;20071;-81